createdAt,value
2022-12-03T00:00:59.380Z,2.50
2022-12-03T00:03:30.504Z,2.40
2022-12-03T00:06:01.623Z,2.50
2022-12-03T00:08:32.734Z,2.50
2022-12-03T00:11:03.143Z,2.50
2022-12-03T00:13:33.429Z,2.50
2022-12-03T00:16:07.937Z,2.50
2022-12-03T00:18:38.174Z,2.50
2022-12-03T00:21:08.964Z,2.50
2022-12-03T00:23:42.623Z,2.50
2022-12-03T00:26:14.224Z,2.50
2022-12-03T00:28:44.415Z,2.50
2022-12-03T00:31:18.446Z,2.40
2022-12-03T00:33:48.664Z,2.40
2022-12-03T00:36:19.615Z,2.40
2022-12-03T00:38:54.053Z,2.40
2022-12-03T00:41:26.357Z,2.40
2022-12-03T00:43:58.570Z,2.40
2022-12-03T00:46:35.028Z,2.30
2022-12-03T00:49:06.312Z,2.30
2022-12-03T00:51:37.305Z,2.30
2022-12-03T00:54:08.614Z,2.30
2022-12-03T00:56:38.876Z,2.30
2022-12-03T00:59:09.083Z,2.30
2022-12-03T01:01:40.922Z,2.30
2022-12-03T01:04:11.087Z,2.30
2022-12-03T01:06:41.329Z,2.30
2022-12-03T01:09:11.665Z,2.30
2022-12-03T01:11:42.863Z,2.30
2022-12-03T01:14:18.001Z,2.30
2022-12-03T01:16:50.658Z,2.30
2022-12-03T01:19:22.475Z,2.30
2022-12-03T01:21:54.244Z,2.30
2022-12-03T01:24:25.584Z,2.30
2022-12-03T01:26:56.584Z,2.30
2022-12-03T01:29:27.604Z,2.30
2022-12-03T01:32:16.274Z,2.30
2022-12-03T01:34:46.689Z,2.30
2022-12-03T01:37:17.003Z,2.30
2022-12-03T01:39:47.296Z,2.30
2022-12-03T01:42:20.318Z,2.40
2022-12-03T01:44:53.961Z,2.40
2022-12-03T01:47:29.018Z,2.40
2022-12-03T01:50:02.863Z,2.40
2022-12-03T01:52:36.271Z,2.40
2022-12-03T01:55:10.408Z,2.40
2022-12-03T01:57:44.496Z,2.30
2022-12-03T02:00:17.034Z,2.30
2022-12-03T02:02:50.581Z,2.40
2022-12-03T02:05:23.759Z,2.40
2022-12-03T02:07:53.954Z,2.40
2022-12-03T02:10:29.039Z,2.40
2022-12-03T02:13:02.424Z,2.40
2022-12-03T02:15:32.815Z,2.40
2022-12-03T02:18:04.488Z,2.50
2022-12-03T02:20:40.587Z,2.50
2022-12-03T02:23:15.775Z,2.60
2022-12-03T02:25:47.454Z,2.60
2022-12-03T02:28:18.243Z,2.60
2022-12-03T02:30:48.377Z,2.70
2022-12-03T02:33:18.786Z,2.70
2022-12-03T02:35:48.801Z,2.70
2022-12-03T02:38:22.455Z,2.70
2022-12-03T02:40:57.623Z,2.70
2022-12-03T02:43:27.551Z,2.70
2022-12-03T02:46:06.945Z,2.70
2022-12-03T02:48:39.461Z,2.70
2022-12-03T02:51:11.359Z,2.70
2022-12-03T02:53:45.723Z,2.70
2022-12-03T02:56:19.326Z,2.70
2022-12-03T02:58:51.716Z,2.70
2022-12-03T03:01:22.023Z,2.80
2022-12-03T03:03:52.914Z,2.80
2022-12-03T03:06:24.600Z,2.80
2022-12-03T03:08:55.152Z,2.70
2022-12-03T03:11:28.136Z,2.60
2022-12-03T03:13:58.639Z,2.50
2022-12-03T03:16:31.946Z,2.40
2022-12-03T03:19:02.863Z,2.30
2022-12-03T03:21:33.028Z,2.30
2022-12-03T03:24:03.543Z,2.20
2022-12-03T03:26:35.801Z,2.10
2022-12-03T03:29:09.293Z,2.10
2022-12-03T03:31:39.669Z,2.10
2022-12-03T03:34:09.982Z,2.10
2022-12-03T03:36:40.376Z,2.10
2022-12-03T03:39:10.977Z,2.00
2022-12-03T03:41:43.552Z,2.00
2022-12-03T03:44:13.982Z,2.00
2022-12-03T03:46:44.911Z,1.90
2022-12-03T03:49:15.612Z,2.00
2022-12-03T03:51:45.813Z,2.00
2022-12-03T03:54:16.514Z,2.10
2022-12-03T03:56:48.295Z,2.10
2022-12-03T03:59:18.588Z,2.10
2022-12-03T04:01:48.994Z,2.20
2022-12-03T04:04:22.961Z,2.20
2022-12-03T04:06:53.189Z,2.30
2022-12-03T04:09:23.255Z,2.30
2022-12-03T04:12:12.431Z,2.30
2022-12-03T04:14:42.567Z,2.30
2022-12-03T04:17:12.827Z,2.30
2022-12-03T04:19:42.771Z,2.30
2022-12-03T04:22:29.540Z,2.30
2022-12-03T04:25:19.680Z,2.30
2022-12-03T04:28:07.892Z,2.30
2022-12-03T04:30:37.981Z,2.30
2022-12-03T04:33:25.040Z,2.30
2022-12-03T04:35:55.614Z,2.30
2022-12-03T04:38:25.788Z,2.30
2022-12-03T04:41:05.942Z,2.30
2022-12-03T04:43:58.761Z,2.30
2022-12-03T04:46:28.881Z,2.20
2022-12-03T04:48:59.086Z,2.20
2022-12-03T04:51:29.087Z,2.20
2022-12-03T04:53:59.155Z,2.20
2022-12-03T04:56:29.210Z,2.20
2022-12-03T04:59:01.222Z,2.10
2022-12-03T05:01:31.654Z,2.20
2022-12-03T05:04:01.907Z,2.10
2022-12-03T05:06:32.207Z,2.10
2022-12-03T05:09:02.606Z,2.10
2022-12-03T05:11:33.141Z,2.00
2022-12-03T05:14:04.806Z,1.90
2022-12-03T05:16:34.887Z,1.80
2022-12-03T05:19:05.911Z,1.70
2022-12-03T05:21:34.800Z,1.70
2022-12-03T05:24:04.921Z,1.60
2022-12-03T05:26:35.228Z,1.60
2022-12-03T05:29:06.884Z,1.50
2022-12-03T05:31:37.157Z,1.50
2022-12-03T05:34:07.123Z,1.40
2022-12-03T05:36:37.196Z,1.40
2022-12-03T05:39:07.263Z,1.40
2022-12-03T05:41:54.252Z,1.40
2022-12-03T05:44:25.966Z,1.40
2022-12-03T05:46:55.967Z,1.40
2022-12-03T05:49:26.469Z,1.50
2022-12-03T05:51:58.645Z,1.50
2022-12-03T05:54:29.192Z,1.60
2022-12-03T05:56:59.427Z,1.60
2022-12-03T05:59:31.133Z,1.60
2022-12-03T06:02:01.282Z,1.70
2022-12-03T06:04:31.377Z,1.70
2022-12-03T06:07:01.448Z,1.70
2022-12-03T06:09:31.494Z,1.80
2022-12-03T06:12:02.209Z,1.80
2022-12-03T06:14:35.359Z,1.80
2022-12-03T06:17:05.505Z,1.80
2022-12-03T06:19:35.618Z,1.80
2022-12-03T06:22:05.672Z,1.90
2022-12-03T06:24:35.712Z,1.90
2022-12-03T06:27:05.847Z,1.90
2022-12-03T06:29:38.096Z,2.00
2022-12-03T06:32:08.591Z,2.00
2022-12-03T06:34:38.748Z,1.90
2022-12-03T06:37:09.119Z,2.00
2022-12-03T06:39:39.125Z,1.90
2022-12-03T06:42:09.263Z,1.90
2022-12-03T06:44:40.922Z,1.90
2022-12-03T06:47:10.999Z,1.90
2022-12-03T06:49:41.107Z,1.90
2022-12-03T06:52:11.182Z,1.90
2022-12-03T06:54:41.359Z,1.90
2022-12-03T06:57:11.441Z,1.90
2022-12-03T06:59:43.140Z,1.80
2022-12-03T07:02:14.104Z,1.80
2022-12-03T07:04:52.859Z,1.70
2022-12-03T07:07:23.444Z,1.70
2022-12-03T07:09:53.485Z,1.70
2022-12-03T07:12:24.304Z,1.70
2022-12-03T07:14:56.346Z,1.70
2022-12-03T07:17:26.766Z,1.70
2022-12-03T07:19:56.897Z,1.70
2022-12-03T07:22:27.305Z,1.70
2022-12-03T07:24:57.703Z,1.70
2022-12-03T07:27:27.979Z,1.80
2022-12-03T07:29:59.559Z,1.80
2022-12-03T07:32:29.780Z,1.80
2022-12-03T07:35:01.675Z,1.80
2022-12-03T07:37:31.856Z,1.80
2022-12-03T07:40:01.897Z,1.90
2022-12-03T07:42:32.005Z,1.90
2022-12-03T07:45:03.602Z,1.90
2022-12-03T07:47:33.958Z,1.90
2022-12-03T07:50:04.156Z,1.90
2022-12-03T07:52:34.184Z,1.90
2022-12-03T07:55:04.392Z,1.90
2022-12-03T07:57:34.520Z,2.00
2022-12-03T08:00:08.180Z,2.00
2022-12-03T08:02:38.340Z,2.00
2022-12-03T08:05:09.200Z,2.00
2022-12-03T08:07:39.353Z,2.00
2022-12-03T08:10:10.364Z,2.00
2022-12-03T08:12:42.424Z,2.00
2022-12-03T08:15:17.919Z,2.10
2022-12-03T08:17:49.432Z,2.10
2022-12-03T08:20:21.827Z,2.10
2022-12-03T08:22:53.644Z,2.20
2022-12-03T08:25:25.631Z,2.20
2022-12-03T08:28:02.427Z,2.20
2022-12-03T08:30:34.069Z,2.20
2022-12-03T08:33:04.649Z,2.20
2022-12-03T08:35:35.540Z,2.20
2022-12-03T08:38:15.022Z,2.20
2022-12-03T08:40:46.462Z,2.20
2022-12-03T08:43:21.674Z,2.20
2022-12-03T08:45:54.557Z,2.20
2022-12-03T08:48:33.972Z,2.20
2022-12-03T08:51:08.774Z,2.20
2022-12-03T08:53:41.101Z,2.20
2022-12-03T08:56:23.016Z,2.10
2022-12-03T08:58:55.649Z,2.10
2022-12-03T09:01:44.074Z,2.10
2022-12-03T09:04:39.201Z,2.20
2022-12-03T09:07:09.360Z,2.20
2022-12-03T09:09:39.677Z,2.20
2022-12-03T09:12:10.079Z,2.20
2022-12-03T09:14:40.789Z,2.20
2022-12-03T09:17:12.406Z,2.20
2022-12-03T09:19:46.287Z,2.20
2022-12-03T09:22:17.898Z,2.20
2022-12-03T09:24:47.907Z,2.20
2022-12-03T09:27:17.930Z,2.20
2022-12-03T09:29:48.090Z,2.30
2022-12-03T09:32:19.784Z,2.30
2022-12-03T09:34:49.938Z,2.30
2022-12-03T09:37:20.484Z,2.30
2022-12-03T09:39:50.746Z,2.30
2022-12-03T09:42:21.073Z,2.40
2022-12-03T09:44:51.590Z,2.30
2022-12-03T09:47:23.839Z,2.40
2022-12-03T09:49:54.877Z,2.40
2022-12-03T09:52:29.008Z,2.40
2022-12-03T09:54:59.686Z,2.40
2022-12-03T09:57:29.705Z,2.40
2022-12-03T10:00:00.271Z,2.30
2022-12-03T10:02:34.881Z,2.40
2022-12-03T10:05:05.025Z,2.40
2022-12-03T10:07:35.167Z,2.40
2022-12-03T10:10:05.466Z,2.40
2022-12-03T10:12:36.772Z,2.40
2022-12-03T10:15:07.927Z,2.40
2022-12-03T10:17:39.537Z,2.50
2022-12-03T10:20:13.456Z,2.50
2022-12-03T10:22:43.836Z,2.50
2022-12-03T10:25:16.594Z,2.50
2022-12-03T10:27:57.826Z,2.50
2022-12-03T10:30:29.143Z,2.60
2022-12-03T10:33:03.226Z,2.60
2022-12-03T10:35:41.788Z,2.60
2022-12-03T10:38:22.896Z,2.60
2022-12-03T10:40:53.233Z,2.70
2022-12-03T10:43:27.742Z,2.90
2022-12-03T10:46:13.983Z,3.20
2022-12-03T10:48:45.894Z,3.50
2022-12-03T10:51:22.681Z,4.00
2022-12-03T10:53:53.387Z,4.30
2022-12-03T10:56:28.003Z,4.60
2022-12-03T10:58:58.600Z,4.90
2022-12-03T11:01:30.392Z,5.10
2022-12-03T11:04:06.962Z,5.30
2022-12-03T11:06:37.085Z,5.40
2022-12-03T11:09:09.231Z,5.50
2022-12-03T11:11:39.938Z,5.60
2022-12-03T11:14:13.930Z,5.70
2022-12-03T11:17:13.216Z,5.80
2022-12-03T11:19:52.671Z,5.80
2022-12-03T11:22:40.519Z,5.90
2022-12-03T11:25:50.477Z,6.00
2022-12-03T11:28:54.475Z,6.10
2022-12-03T11:31:38.946Z,6.10
2022-12-03T11:34:51.443Z,6.30
2022-12-03T11:37:27.452Z,6.30
2022-12-03T11:40:22.838Z,6.50
2022-12-03T11:42:53.072Z,6.50
2022-12-03T11:45:33.131Z,6.50
2022-12-03T11:48:13.582Z,6.60
2022-12-03T11:50:45.605Z,6.60
2022-12-03T11:53:21.827Z,6.60
2022-12-03T11:56:06.748Z,6.70
2022-12-03T11:58:39.297Z,6.70
2022-12-03T12:01:10.635Z,6.70
2022-12-03T12:03:47.223Z,6.80
2022-12-03T12:06:19.174Z,6.80
2022-12-03T12:09:01.130Z,6.80
2022-12-03T12:11:33.969Z,6.90
2022-12-03T12:14:05.035Z,6.90
2022-12-03T12:16:53.994Z,6.80
2022-12-03T12:19:36.079Z,6.80
2022-12-03T12:22:33.205Z,6.80
2022-12-03T12:25:07.578Z,6.90
2022-12-03T12:27:40.126Z,6.80
2022-12-03T12:30:15.113Z,6.80
2022-12-03T12:32:48.758Z,6.80
2022-12-03T12:35:21.048Z,6.80
2022-12-03T12:37:59.607Z,6.80
2022-12-03T12:40:34.587Z,6.80
2022-12-03T12:43:13.185Z,6.80
2022-12-03T12:45:46.798Z,6.80
2022-12-03T12:48:23.953Z,6.80
2022-12-03T12:51:00.394Z,6.70
2022-12-03T12:53:33.065Z,6.70
2022-12-03T12:56:11.995Z,6.70
2022-12-03T12:58:42.694Z,6.70
2022-12-03T13:01:22.265Z,6.70
2022-12-03T13:03:54.271Z,6.60
2022-12-03T13:06:28.455Z,6.60
2022-12-03T13:08:59.554Z,6.60
2022-12-03T13:11:40.251Z,6.50
2022-12-03T13:14:18.526Z,6.50
2022-12-03T13:16:49.267Z,6.40
2022-12-03T13:19:24.993Z,6.40
2022-12-03T13:21:56.122Z,6.40
2022-12-03T13:24:38.236Z,6.40
2022-12-03T13:27:26.476Z,6.30
2022-12-03T13:29:58.546Z,6.30
2022-12-03T13:32:31.978Z,6.20
2022-12-03T13:35:04.652Z,6.20
2022-12-03T13:37:35.155Z,6.20
2022-12-03T13:40:19.398Z,6.20
2022-12-03T13:42:51.320Z,6.20
2022-12-03T13:45:33.812Z,6.20
2022-12-03T13:48:05.369Z,6.20
2022-12-03T13:50:38.838Z,6.20
2022-12-03T13:53:18.613Z,6.20
2022-12-03T13:55:50.997Z,6.20
2022-12-03T13:58:22.561Z,6.20
2022-12-03T14:00:52.717Z,6.20
2022-12-03T14:03:23.897Z,6.20
2022-12-03T14:05:54.202Z,6.30
2022-12-03T14:08:24.337Z,6.30
2022-12-03T14:11:00.231Z,6.30
2022-12-03T14:13:32.497Z,6.30
2022-12-03T14:16:02.769Z,6.30
2022-12-03T14:18:32.913Z,6.30
2022-12-03T14:21:05.115Z,6.30
2022-12-03T14:23:35.111Z,6.30
2022-12-03T14:26:05.385Z,6.30
2022-12-03T14:28:37.217Z,6.30
2022-12-03T14:31:07.464Z,6.30
2022-12-03T14:33:37.602Z,6.30
2022-12-03T14:36:08.364Z,6.30
2022-12-03T14:38:38.572Z,6.30
2022-12-03T14:41:29.244Z,6.40
2022-12-03T14:44:00.826Z,6.40
2022-12-03T14:46:31.208Z,6.40
2022-12-03T14:49:01.695Z,6.50
2022-12-03T14:51:31.832Z,6.50
2022-12-03T14:54:01.873Z,6.50
2022-12-03T14:56:31.965Z,6.50
2022-12-03T14:59:03.608Z,6.60
2022-12-03T15:01:34.010Z,6.60
2022-12-03T15:04:04.197Z,6.70
2022-12-03T15:06:34.311Z,6.70
2022-12-03T15:09:04.385Z,6.80
2022-12-03T15:11:35.180Z,6.90
2022-12-03T15:14:08.081Z,6.90
2022-12-03T15:16:38.288Z,7.00
2022-12-03T15:19:08.423Z,7.00
2022-12-03T15:21:38.496Z,7.00
2022-12-03T15:24:09.325Z,7.10
2022-12-03T15:26:40.617Z,7.10
2022-12-03T15:29:12.301Z,7.10
2022-12-03T15:31:42.619Z,7.20
2022-12-03T15:34:15.011Z,7.20
2022-12-03T15:36:48.942Z,7.20
2022-12-03T15:39:21.979Z,7.20
2022-12-03T15:41:52.204Z,7.30
2022-12-03T15:44:24.088Z,7.30
2022-12-03T15:46:54.446Z,7.40
2022-12-03T15:49:24.466Z,7.40
2022-12-03T15:51:54.517Z,7.40
2022-12-03T15:54:24.536Z,7.40
2022-12-03T15:56:57.455Z,7.40
2022-12-03T15:59:29.432Z,7.40
2022-12-03T16:01:59.495Z,7.40
2022-12-03T16:04:29.575Z,7.30
2022-12-03T16:06:59.819Z,7.30
2022-12-03T16:09:29.955Z,7.40
2022-12-03T16:12:00.326Z,7.50
2022-12-03T16:14:32.162Z,7.50
2022-12-03T16:17:11.186Z,7.70
2022-12-03T16:19:41.238Z,7.80
2022-12-03T16:22:11.361Z,7.80
2022-12-03T16:24:41.390Z,7.90
2022-12-03T16:27:11.529Z,8.00
2022-12-03T16:29:44.290Z,8.00
2022-12-03T16:32:14.356Z,8.00
2022-12-03T16:34:44.982Z,8.10
2022-12-03T16:40:10.017Z,8.20
2022-12-03T16:42:40.492Z,8.30
2022-12-03T16:45:51.786Z,8.30
2022-12-03T16:48:21.989Z,8.30
2022-12-03T16:50:52.065Z,8.40
2022-12-03T16:53:22.829Z,8.40
2022-12-03T16:55:52.911Z,8.50
2022-12-03T16:58:23.174Z,8.50
2022-12-03T17:00:55.042Z,8.40
2022-12-03T17:03:30.426Z,8.50
2022-12-03T17:06:03.696Z,8.50
2022-12-03T17:08:33.855Z,8.60
2022-12-03T17:11:04.069Z,8.60
2022-12-03T17:13:34.668Z,8.60
2022-12-03T17:16:07.471Z,8.60
2022-12-03T17:18:37.653Z,8.60
2022-12-03T17:21:07.960Z,8.60
2022-12-03T17:23:38.000Z,8.70
2022-12-03T17:26:08.353Z,8.70
2022-12-03T17:28:38.767Z,8.80
2022-12-03T17:31:10.556Z,8.90
2022-12-03T17:33:40.907Z,8.90
2022-12-03T17:36:11.429Z,9.00
2022-12-03T17:38:41.497Z,9.00
2022-12-03T17:41:11.959Z,9.00
2022-12-03T17:43:42.413Z,9.00
2022-12-03T17:46:14.165Z,9.10
2022-12-03T17:48:44.194Z,9.10
2022-12-03T17:51:14.387Z,9.20
2022-12-03T17:53:44.408Z,9.20
2022-12-03T17:56:14.479Z,9.20
2022-12-03T17:58:44.513Z,9.20
2022-12-03T18:01:16.401Z,9.20
2022-12-03T18:03:46.750Z,9.20
2022-12-03T18:06:16.849Z,9.10
2022-12-03T18:08:47.118Z,9.10
2022-12-03T18:11:17.293Z,9.10
2022-12-03T18:13:48.120Z,9.00
2022-12-03T18:16:19.873Z,8.80
2022-12-03T18:18:53.748Z,8.60
2022-12-03T18:21:26.877Z,8.40
2022-12-03T18:23:57.262Z,8.30
2022-12-03T18:26:28.078Z,8.40
2022-12-03T18:28:58.130Z,8.50
2022-12-03T18:31:30.374Z,8.50
2022-12-03T18:34:00.438Z,8.40
2022-12-03T18:36:35.135Z,8.50
2022-12-03T18:39:09.008Z,8.60
2022-12-03T18:41:39.288Z,8.60
2022-12-03T18:44:12.183Z,8.60
2022-12-03T18:46:59.226Z,8.60
2022-12-03T18:49:29.261Z,8.60
2022-12-03T18:51:59.911Z,8.70
2022-12-03T18:54:30.566Z,8.70
2022-12-03T18:57:00.579Z,8.80
2022-12-03T18:59:30.579Z,8.80
2022-12-03T19:02:02.351Z,8.80
2022-12-03T19:04:32.678Z,8.80
2022-12-03T19:07:04.329Z,8.80
2022-12-03T19:09:34.318Z,8.90
2022-12-03T19:12:05.869Z,8.90
2022-12-03T19:14:38.858Z,8.80
2022-12-03T19:17:12.147Z,8.80
2022-12-03T19:19:42.330Z,8.80
2022-12-03T19:22:12.677Z,8.80
2022-12-03T19:24:44.732Z,8.80
2022-12-03T19:27:14.875Z,8.80
2022-12-03T19:29:45.259Z,8.80
2022-12-03T19:32:17.039Z,8.80
2022-12-03T19:34:47.089Z,8.80
2022-12-03T19:37:17.205Z,8.90
2022-12-03T19:39:47.273Z,9.20
2022-12-03T19:42:18.012Z,9.40
2022-12-03T19:44:48.043Z,9.40
2022-12-03T19:47:20.515Z,9.40
2022-12-03T19:49:50.698Z,9.40
2022-12-03T19:52:21.094Z,9.40
2022-12-03T19:54:51.134Z,9.30
2022-12-03T19:57:23.494Z,9.10
2022-12-03T19:59:54.186Z,9.00
2022-12-03T20:02:26.187Z,9.00
2022-12-03T20:04:56.813Z,9.00
2022-12-03T20:07:26.960Z,9.00
2022-12-03T20:09:57.493Z,9.10
2022-12-03T20:12:28.790Z,9.10
2022-12-03T20:14:58.863Z,9.10
2022-12-03T20:17:30.456Z,9.10
2022-12-03T20:20:00.472Z,9.00
2022-12-03T20:22:30.533Z,9.00
2022-12-03T20:25:00.691Z,8.80
2022-12-03T20:27:30.792Z,8.50
2022-12-03T20:30:00.889Z,8.10
2022-12-03T20:32:32.590Z,7.60
2022-12-03T20:35:03.889Z,7.40
2022-12-03T20:37:35.149Z,7.20
2022-12-03T20:40:05.436Z,7.10
2022-12-03T20:42:35.548Z,6.90
2022-12-03T20:45:08.601Z,6.80
2022-12-03T20:47:44.170Z,6.70
2022-12-03T20:50:14.181Z,6.60
2022-12-03T20:52:57.916Z,6.60
2022-12-03T20:55:34.832Z,6.50
2022-12-03T20:58:05.739Z,6.50
2022-12-03T21:00:35.755Z,6.50
2022-12-03T21:03:07.484Z,6.50
2022-12-03T21:05:37.467Z,6.40
2022-12-03T21:08:07.709Z,6.40
2022-12-03T21:10:45.558Z,6.40
2022-12-03T21:13:17.004Z,6.40
2022-12-03T21:15:48.262Z,6.30
2022-12-03T21:18:20.636Z,6.30
2022-12-03T21:20:51.194Z,6.30
2022-12-03T21:23:21.267Z,6.20
2022-12-03T21:25:51.658Z,6.20
2022-12-03T21:28:21.780Z,6.10
2022-12-03T21:30:52.911Z,6.10
2022-12-03T21:33:24.699Z,6.00
2022-12-03T21:35:55.051Z,6.00
2022-12-03T21:38:25.305Z,6.00
2022-12-03T21:40:55.826Z,6.00
2022-12-03T21:43:27.353Z,6.00
2022-12-03T21:45:58.266Z,5.90
2022-12-03T21:48:29.995Z,5.90
2022-12-03T21:51:04.365Z,5.90
2022-12-03T21:53:40.435Z,5.80
2022-12-03T21:56:15.291Z,5.80
2022-12-03T21:58:45.809Z,5.80
2022-12-03T22:01:18.087Z,5.80
2022-12-03T22:03:50.122Z,5.70
2022-12-03T22:06:21.055Z,5.70
2022-12-03T22:08:51.789Z,5.70
2022-12-03T22:11:24.298Z,5.70
2022-12-03T22:13:55.192Z,5.60
2022-12-03T22:16:25.280Z,5.40
2022-12-03T22:18:57.300Z,5.30
2022-12-03T22:21:27.316Z,5.30
2022-12-03T22:23:58.940Z,5.30
2022-12-03T22:26:29.021Z,5.30
2022-12-03T22:28:59.122Z,5.30
2022-12-03T22:31:29.322Z,5.30
2022-12-03T22:34:01.223Z,5.30
2022-12-03T22:36:31.368Z,5.30
2022-12-03T22:39:01.462Z,5.30
2022-12-03T22:41:31.748Z,5.30
2022-12-03T22:44:01.839Z,5.30
2022-12-03T22:46:31.945Z,5.30
2022-12-03T22:49:07.407Z,5.30
2022-12-03T22:51:38.190Z,5.30
2022-12-03T22:54:08.673Z,5.30
2022-12-03T22:56:39.100Z,5.30
2022-12-03T22:59:09.916Z,5.40
2022-12-03T23:01:41.733Z,5.30
2022-12-03T23:04:14.197Z,5.30
2022-12-03T23:06:44.470Z,5.20
2022-12-03T23:09:14.853Z,5.10
2022-12-03T23:11:46.990Z,5.10
2022-12-03T23:14:17.218Z,5.10
2022-12-03T23:16:47.244Z,5.10
2022-12-03T23:19:20.508Z,5.10
2022-12-03T23:21:50.526Z,5.10
2022-12-03T23:24:20.891Z,5.10
2022-12-03T23:26:50.957Z,5.10
2022-12-03T23:29:21.249Z,5.10
2022-12-03T23:31:51.378Z,5.00
2022-12-03T23:34:23.508Z,4.90
2022-12-03T23:36:53.652Z,5.00
2022-12-03T23:39:23.780Z,4.90
2022-12-03T23:41:54.447Z,4.90
2022-12-03T23:44:24.863Z,4.90
2022-12-03T23:46:54.883Z,4.90
2022-12-03T23:49:26.999Z,4.80
2022-12-03T23:51:57.036Z,4.80
2022-12-03T23:54:27.587Z,4.80
2022-12-03T23:56:57.863Z,4.80
2022-12-03T23:59:27.984Z,4.70
